sensor_id;sensor_type;location;lat;lon;timestamp;temperature;humidity
22558;DHT22;11445;53.816;8.902;2023-03-01T00:00:20;1.50;99.90
22558;DHT22;11445;53.816;8.902;2023-03-01T00:02:47;1.50;99.90
22558;DHT22;11445;53.816;8.902;2023-03-01T00:05:14;1.50;99.90
22558;DHT22;11445;53.816;8.902;2023-03-01T00:07:42;1.40;99.90
22558;DHT22;11445;53.816;8.902;2023-03-01T00:10:10;1.40;99.90
22558;DHT22;11445;53.816;8.902;2023-03-01T00:12:38;1.40;99.90
22558;DHT22;11445;53.816;8.902;2023-03-01T00:15:05;1.30;99.90
22558;DHT22;11445;53.816;8.902;2023-03-01T00:17:33;1.30;99.90
22558;DHT22;11445;53.816;8.902;2023-03-01T00:20:00;1.30;99.90
22558;DHT22;11445;53.816;8.902;2023-03-01T00:22:27;1.20;99.90
22558;DHT22;11445;53.816;8.902;2023-03-01T00:24:56;1.10;99.90
22558;DHT22;11445;53.816;8.902;2023-03-01T00:27:23;1.10;99.90
22558;DHT22;11445;53.816;8.902;2023-03-01T00:29:50;1.00;99.90
22558;DHT22;11445;53.816;8.902;2023-03-01T00:32:17;0.90;99.90
22558;DHT22;11445;53.816;8.902;2023-03-01T00:34:44;0.80;99.90
22558;DHT22;11445;53.816;8.902;2023-03-01T00:37:19;0.80;99.90
22558;DHT22;11445;53.816;8.902;2023-03-01T00:39:46;0.70;99.90
22558;DHT22;11445;53.816;8.902;2023-03-01T00:42:15;0.70;99.90
22558;DHT22;11445;53.816;8.902;2023-03-01T00:44:43;0.70;99.90
22558;DHT22;11445;53.816;8.902;2023-03-01T00:47:10;0.70;99.90
22558;DHT22;11445;53.816;8.902;2023-03-01T00:49:37;0.70;99.90
22558;DHT22;11445;53.816;8.902;2023-03-01T00:52:04;0.70;99.90
22558;DHT22;11445;53.816;8.902;2023-03-01T00:54:31;0.60;99.90
22558;DHT22;11445;53.816;8.902;2023-03-01T00:56:58;0.50;99.90
22558;DHT22;11445;53.816;8.902;2023-03-01T00:59:27;0.50;99.90
22558;DHT22;11445;53.816;8.902;2023-03-01T01:01:54;0.50;99.90
22558;DHT22;11445;53.816;8.902;2023-03-01T01:04:21;0.50;99.90
22558;DHT22;11445;53.816;8.902;2023-03-01T01:06:48;0.40;99.90
22558;DHT22;11445;53.816;8.902;2023-03-01T01:09:16;0.40;99.90
22558;DHT22;11445;53.816;8.902;2023-03-01T01:11:44;0.40;99.90
22558;DHT22;11445;53.816;8.902;2023-03-01T01:14:11;0.30;99.90
22558;DHT22;11445;53.816;8.902;2023-03-01T01:16:40;0.40;99.90
22558;DHT22;11445;53.816;8.902;2023-03-01T01:19:07;0.40;99.90
22558;DHT22;11445;53.816;8.902;2023-03-01T01:21:34;0.40;99.90
22558;DHT22;11445;53.816;8.902;2023-03-01T01:24:03;0.50;99.90
22558;DHT22;11445;53.816;8.902;2023-03-01T01:26:32;0.50;99.90
22558;DHT22;11445;53.816;8.902;2023-03-01T01:29:00;0.50;99.90
22558;DHT22;11445;53.816;8.902;2023-03-01T01:31:28;0.50;99.90
22558;DHT22;11445;53.816;8.902;2023-03-01T01:33:58;0.50;99.90
22558;DHT22;11445;53.816;8.902;2023-03-01T01:36:25;0.50;99.90
22558;DHT22;11445;53.816;8.902;2023-03-01T01:38:52;0.40;99.90
22558;DHT22;11445;53.816;8.902;2023-03-01T01:41:21;0.40;99.90
22558;DHT22;11445;53.816;8.902;2023-03-01T01:43:49;0.40;99.90
22558;DHT22;11445;53.816;8.902;2023-03-01T01:46:37;0.40;99.90
22558;DHT22;11445;53.816;8.902;2023-03-01T01:49:12;0.40;99.90
22558;DHT22;11445;53.816;8.902;2023-03-01T01:51:44;0.50;99.90
22558;DHT22;11445;53.816;8.902;2023-03-01T01:54:16;0.50;99.90
22558;DHT22;11445;53.816;8.902;2023-03-01T01:56:49;0.50;99.90
22558;DHT22;11445;53.816;8.902;2023-03-01T01:59:18;0.40;99.90
22558;DHT22;11445;53.816;8.902;2023-03-01T02:01:48;0.40;99.90
22558;DHT22;11445;53.816;8.902;2023-03-01T02:04:16;0.40;99.90
22558;DHT22;11445;53.816;8.902;2023-03-01T02:06:49;0.40;99.90
22558;DHT22;11445;53.816;8.902;2023-03-01T02:09:20;0.30;99.90
22558;DHT22;11445;53.816;8.902;2023-03-01T02:11:49;0.40;99.90
22558;DHT22;11445;53.816;8.902;2023-03-01T02:14:17;0.30;99.90
22558;DHT22;11445;53.816;8.902;2023-03-01T02:16:44;0.30;99.90
22558;DHT22;11445;53.816;8.902;2023-03-01T02:19:20;0.30;99.90
22558;DHT22;11445;53.816;8.902;2023-03-01T02:21:57;0.30;99.90
22558;DHT22;11445;53.816;8.902;2023-03-01T02:24:31;0.40;99.90
22558;DHT22;11445;53.816;8.902;2023-03-01T02:27:00;0.40;99.90
22558;DHT22;11445;53.816;8.902;2023-03-01T02:29:29;0.50;99.90
22558;DHT22;11445;53.816;8.902;2023-03-01T02:31:58;0.40;99.90
22558;DHT22;11445;53.816;8.902;2023-03-01T02:34:26;0.40;99.90
22558;DHT22;11445;53.816;8.902;2023-03-01T02:36:57;0.40;99.90
22558;DHT22;11445;53.816;8.902;2023-03-01T02:39:28;0.40;99.90
22558;DHT22;11445;53.816;8.902;2023-03-01T02:41:57;0.40;99.90
22558;DHT22;11445;53.816;8.902;2023-03-01T02:44:25;0.30;99.90
22558;DHT22;11445;53.816;8.902;2023-03-01T02:46:56;0.30;99.90
22558;DHT22;11445;53.816;8.902;2023-03-01T02:49:26;0.20;99.90
22558;DHT22;11445;53.816;8.902;2023-03-01T02:52:24;0.20;99.90
22558;DHT22;11445;53.816;8.902;2023-03-01T02:54:59;0.20;99.90
22558;DHT22;11445;53.816;8.902;2023-03-01T02:57:29;0.20;99.90
22558;DHT22;11445;53.816;8.902;2023-03-01T02:59:59;0.20;99.90
22558;DHT22;11445;53.816;8.902;2023-03-01T03:02:29;0.20;99.90
22558;DHT22;11445;53.816;8.902;2023-03-01T03:05:06;0.20;99.90
22558;DHT22;11445;53.816;8.902;2023-03-01T03:07:34;0.20;99.90
22558;DHT22;11445;53.816;8.902;2023-03-01T03:10:02;0.20;99.90
22558;DHT22;11445;53.816;8.902;2023-03-01T03:12:29;0.20;99.90
22558;DHT22;11445;53.816;8.902;2023-03-01T03:14:56;0.30;99.90
22558;DHT22;11445;53.816;8.902;2023-03-01T03:17:24;0.30;99.90
22558;DHT22;11445;53.816;8.902;2023-03-01T03:19:52;0.30;99.90
22558;DHT22;11445;53.816;8.902;2023-03-01T03:22:19;0.30;99.90
22558;DHT22;11445;53.816;8.902;2023-03-01T03:24:46;0.20;99.90
22558;DHT22;11445;53.816;8.902;2023-03-01T03:27:13;0.20;99.90
22558;DHT22;11445;53.816;8.902;2023-03-01T03:29:40;0.20;99.90
22558;DHT22;11445;53.816;8.902;2023-03-01T03:32:08;0.10;99.90
22558;DHT22;11445;53.816;8.902;2023-03-01T03:34:35;0.20;99.90
22558;DHT22;11445;53.816;8.902;2023-03-01T03:37:03;0.20;99.90
22558;DHT22;11445;53.816;8.902;2023-03-01T03:39:50;0.20;99.90
22558;DHT22;11445;53.816;8.902;2023-03-01T03:42:20;0.20;99.90
22558;DHT22;11445;53.816;8.902;2023-03-01T03:44:47;0.20;99.90
22558;DHT22;11445;53.816;8.902;2023-03-01T03:47:14;0.20;99.90
22558;DHT22;11445;53.816;8.902;2023-03-01T03:49:41;0.20;99.90
22558;DHT22;11445;53.816;8.902;2023-03-01T03:52:10;0.20;99.90
22558;DHT22;11445;53.816;8.902;2023-03-01T03:54:39;0.20;99.90
22558;DHT22;11445;53.816;8.902;2023-03-01T03:57:06;0.10;99.90
22558;DHT22;11445;53.816;8.902;2023-03-01T03:59:33;0.10;99.90
22558;DHT22;11445;53.816;8.902;2023-03-01T04:02:00;0.10;99.90
22558;DHT22;11445;53.816;8.902;2023-03-01T04:04:27;0.10;99.90
22558;DHT22;11445;53.816;8.902;2023-03-01T04:06:54;0.20;99.90
22558;DHT22;11445;53.816;8.902;2023-03-01T04:09:23;0.20;99.90
22558;DHT22;11445;53.816;8.902;2023-03-01T04:11:50;0.30;99.90
22558;DHT22;11445;53.816;8.902;2023-03-01T04:14:17;0.30;99.90
22558;DHT22;11445;53.816;8.902;2023-03-01T04:16:44;0.30;99.90
22558;DHT22;11445;53.816;8.902;2023-03-01T04:19:11;0.40;99.90
22558;DHT22;11445;53.816;8.902;2023-03-01T04:21:40;0.40;99.90
22558;DHT22;11445;53.816;8.902;2023-03-01T04:24:08;0.50;99.90
22558;DHT22;11445;53.816;8.902;2023-03-01T04:26:36;0.50;99.90
22558;DHT22;11445;53.816;8.902;2023-03-01T04:29:03;0.40;99.90
22558;DHT22;11445;53.816;8.902;2023-03-01T04:31:30;0.40;99.90
22558;DHT22;11445;53.816;8.902;2023-03-01T04:33:57;0.40;99.90
22558;DHT22;11445;53.816;8.902;2023-03-01T04:36:27;0.40;99.90
22558;DHT22;11445;53.816;8.902;2023-03-01T04:38:55;0.40;99.90
22558;DHT22;11445;53.816;8.902;2023-03-01T04:41:24;0.40;99.90
22558;DHT22;11445;53.816;8.902;2023-03-01T04:43:52;0.40;99.90
22558;DHT22;11445;53.816;8.902;2023-03-01T04:46:20;0.40;99.90
22558;DHT22;11445;53.816;8.902;2023-03-01T04:48:48;0.40;99.90
22558;DHT22;11445;53.816;8.902;2023-03-01T04:51:15;0.40;99.90
22558;DHT22;11445;53.816;8.902;2023-03-01T04:53:44;0.40;99.90
22558;DHT22;11445;53.816;8.902;2023-03-01T04:56:11;0.40;99.90
22558;DHT22;11445;53.816;8.902;2023-03-01T04:58:39;0.50;99.90
22558;DHT22;11445;53.816;8.902;2023-03-01T05:01:12;0.50;99.90
22558;DHT22;11445;53.816;8.902;2023-03-01T05:03:42;0.50;99.90
22558;DHT22;11445;53.816;8.902;2023-03-01T05:06:10;0.50;99.90
22558;DHT22;11445;53.816;8.902;2023-03-01T05:08:38;0.60;99.90
22558;DHT22;11445;53.816;8.902;2023-03-01T05:11:06;0.60;99.90
22558;DHT22;11445;53.816;8.902;2023-03-01T05:13:35;0.60;99.90
22558;DHT22;11445;53.816;8.902;2023-03-01T05:16:05;0.60;99.90
22558;DHT22;11445;53.816;8.902;2023-03-01T05:18:33;0.70;99.90
22558;DHT22;11445;53.816;8.902;2023-03-01T05:21:04;0.70;99.90
22558;DHT22;11445;53.816;8.902;2023-03-01T05:23:32;0.70;99.90
22558;DHT22;11445;53.816;8.902;2023-03-01T05:26:00;0.70;99.90
22558;DHT22;11445;53.816;8.902;2023-03-01T05:28:28;0.70;99.90
22558;DHT22;11445;53.816;8.902;2023-03-01T05:30:56;0.80;99.90
22558;DHT22;11445;53.816;8.902;2023-03-01T05:33:23;0.80;99.90
22558;DHT22;11445;53.816;8.902;2023-03-01T05:35:52;0.80;99.90
22558;DHT22;11445;53.816;8.902;2023-03-01T05:38:20;0.80;99.90
22558;DHT22;11445;53.816;8.902;2023-03-01T05:40:48;0.80;99.90
22558;DHT22;11445;53.816;8.902;2023-03-01T05:43:17;0.80;99.90
22558;DHT22;11445;53.816;8.902;2023-03-01T05:45:45;0.90;99.90
22558;DHT22;11445;53.816;8.902;2023-03-01T05:48:12;0.90;99.90
22558;DHT22;11445;53.816;8.902;2023-03-01T05:50:41;0.90;99.90
22558;DHT22;11445;53.816;8.902;2023-03-01T05:53:12;0.90;99.90
22558;DHT22;11445;53.816;8.902;2023-03-01T05:55:39;0.90;99.90
22558;DHT22;11445;53.816;8.902;2023-03-01T05:58:09;0.90;99.90
22558;DHT22;11445;53.816;8.902;2023-03-01T06:00:36;0.90;99.90
22558;DHT22;11445;53.816;8.902;2023-03-01T06:03:04;0.90;99.90
22558;DHT22;11445;53.816;8.902;2023-03-01T06:05:31;1.00;99.90
22558;DHT22;11445;53.816;8.902;2023-03-01T06:07:59;1.00;99.90
22558;DHT22;11445;53.816;8.902;2023-03-01T06:10:28;1.00;99.90
22558;DHT22;11445;53.816;8.902;2023-03-01T06:12:56;1.10;99.90
22558;DHT22;11445;53.816;8.902;2023-03-01T06:15:24;1.10;99.90
22558;DHT22;11445;53.816;8.902;2023-03-01T06:17:53;1.10;99.90
22558;DHT22;11445;53.816;8.902;2023-03-01T06:20:22;1.10;99.90
22558;DHT22;11445;53.816;8.902;2023-03-01T06:22:50;1.10;99.90
22558;DHT22;11445;53.816;8.902;2023-03-01T06:25:20;1.10;99.90
22558;DHT22;11445;53.816;8.902;2023-03-01T06:27:49;1.20;99.90
22558;DHT22;11445;53.816;8.902;2023-03-01T06:30:19;1.20;99.90
22558;DHT22;11445;53.816;8.902;2023-03-01T06:32:46;1.20;99.90
22558;DHT22;11445;53.816;8.902;2023-03-01T06:35:16;1.20;99.90
22558;DHT22;11445;53.816;8.902;2023-03-01T06:37:44;1.20;99.90
22558;DHT22;11445;53.816;8.902;2023-03-01T06:40:12;1.30;99.90
22558;DHT22;11445;53.816;8.902;2023-03-01T06:42:43;1.30;99.90
22558;DHT22;11445;53.816;8.902;2023-03-01T06:45:12;1.30;99.90
22558;DHT22;11445;53.816;8.902;2023-03-01T06:47:39;1.30;99.90
22558;DHT22;11445;53.816;8.902;2023-03-01T06:50:07;1.30;99.90
22558;DHT22;11445;53.816;8.902;2023-03-01T06:52:34;1.40;99.90
22558;DHT22;11445;53.816;8.902;2023-03-01T06:55:01;1.40;99.90
22558;DHT22;11445;53.816;8.902;2023-03-01T06:57:28;1.40;99.90
22558;DHT22;11445;53.816;8.902;2023-03-01T06:59:56;1.40;99.90
22558;DHT22;11445;53.816;8.902;2023-03-01T07:02:24;1.40;99.90
22558;DHT22;11445;53.816;8.902;2023-03-01T07:04:52;1.40;99.90
22558;DHT22;11445;53.816;8.902;2023-03-01T07:07:19;1.40;99.90
22558;DHT22;11445;53.816;8.902;2023-03-01T07:09:48;1.40;99.90
22558;DHT22;11445;53.816;8.902;2023-03-01T07:12:15;1.40;99.90
22558;DHT22;11445;53.816;8.902;2023-03-01T07:14:44;1.40;99.90
22558;DHT22;11445;53.816;8.902;2023-03-01T07:17:11;1.40;99.90
22558;DHT22;11445;53.816;8.902;2023-03-01T07:19:39;1.50;99.90
22558;DHT22;11445;53.816;8.902;2023-03-01T07:22:06;1.50;99.90
22558;DHT22;11445;53.816;8.902;2023-03-01T07:24:35;1.50;99.90
22558;DHT22;11445;53.816;8.902;2023-03-01T07:27:02;1.60;99.90
22558;DHT22;11445;53.816;8.902;2023-03-01T07:29:29;1.60;99.90
22558;DHT22;11445;53.816;8.902;2023-03-01T07:31:56;1.60;99.90
22558;DHT22;11445;53.816;8.902;2023-03-01T07:34:24;1.60;99.90
22558;DHT22;11445;53.816;8.902;2023-03-01T07:36:52;1.60;99.90
22558;DHT22;11445;53.816;8.902;2023-03-01T07:39:19;1.60;99.90
22558;DHT22;11445;53.816;8.902;2023-03-01T07:41:48;1.60;99.90
22558;DHT22;11445;53.816;8.902;2023-03-01T07:44:15;1.60;99.90
22558;DHT22;11445;53.816;8.902;2023-03-01T07:46:43;1.60;99.90
22558;DHT22;11445;53.816;8.902;2023-03-01T07:49:10;1.60;99.90
22558;DHT22;11445;53.816;8.902;2023-03-01T07:51:37;1.60;99.90
22558;DHT22;11445;53.816;8.902;2023-03-01T07:54:06;1.60;99.90
22558;DHT22;11445;53.816;8.902;2023-03-01T07:56:33;1.70;99.90
22558;DHT22;11445;53.816;8.902;2023-03-01T07:59:00;1.70;99.90
22558;DHT22;11445;53.816;8.902;2023-03-01T08:01:27;1.80;99.90
22558;DHT22;11445;53.816;8.902;2023-03-01T08:03:54;1.80;99.90
22558;DHT22;11445;53.816;8.902;2023-03-01T08:06:21;1.90;99.90
22558;DHT22;11445;53.816;8.902;2023-03-01T08:08:48;2.00;99.90
22558;DHT22;11445;53.816;8.902;2023-03-01T08:11:17;2.10;99.90
22558;DHT22;11445;53.816;8.902;2023-03-01T08:13:44;2.20;99.90
22558;DHT22;11445;53.816;8.902;2023-03-01T08:16:14;2.20;99.90
22558;DHT22;11445;53.816;8.902;2023-03-01T08:18:42;2.30;99.90
22558;DHT22;11445;53.816;8.902;2023-03-01T08:21:12;2.40;99.90
22558;DHT22;11445;53.816;8.902;2023-03-01T08:23:39;2.40;99.90
22558;DHT22;11445;53.816;8.902;2023-03-01T08:26:08;2.50;99.90
22558;DHT22;11445;53.816;8.902;2023-03-01T08:28:37;2.50;99.90
22558;DHT22;11445;53.816;8.902;2023-03-01T08:31:14;2.60;99.90
22558;DHT22;11445;53.816;8.902;2023-03-01T08:33:41;2.60;99.90
22558;DHT22;11445;53.816;8.902;2023-03-01T08:36:08;2.70;99.90
22558;DHT22;11445;53.816;8.902;2023-03-01T08:38:35;2.80;99.90
22558;DHT22;11445;53.816;8.902;2023-03-01T08:41:03;2.90;99.90
22558;DHT22;11445;53.816;8.902;2023-03-01T08:43:30;3.00;99.90
22558;DHT22;11445;53.816;8.902;2023-03-01T08:45:59;3.10;99.90
22558;DHT22;11445;53.816;8.902;2023-03-01T08:48:27;3.10;99.90
22558;DHT22;11445;53.816;8.902;2023-03-01T08:50:55;3.10;99.90
22558;DHT22;11445;53.816;8.902;2023-03-01T08:53:22;3.20;99.90
22558;DHT22;11445;53.816;8.902;2023-03-01T08:55:49;3.30;99.90
22558;DHT22;11445;53.816;8.902;2023-03-01T08:58:16;3.40;99.90
22558;DHT22;11445;53.816;8.902;2023-03-01T09:00:43;3.50;99.90
22558;DHT22;11445;53.816;8.902;2023-03-01T09:03:12;3.60;99.90
22558;DHT22;11445;53.816;8.902;2023-03-01T09:05:39;3.60;99.90
22558;DHT22;11445;53.816;8.902;2023-03-01T09:08:06;3.60;99.90
22558;DHT22;11445;53.816;8.902;2023-03-01T09:10:37;3.70;99.90
22558;DHT22;11445;53.816;8.902;2023-03-01T09:13:04;3.70;99.90
22558;DHT22;11445;53.816;8.902;2023-03-01T09:15:31;3.80;99.90
22558;DHT22;11445;53.816;8.902;2023-03-01T09:17:59;3.80;99.90
22558;DHT22;11445;53.816;8.902;2023-03-01T09:20:27;4.00;99.90
22558;DHT22;11445;53.816;8.902;2023-03-01T09:22:55;4.00;99.90
22558;DHT22;11445;53.816;8.902;2023-03-01T09:25:22;4.10;99.90
22558;DHT22;11445;53.816;8.902;2023-03-01T09:27:51;4.20;99.90
22558;DHT22;11445;53.816;8.902;2023-03-01T09:30:18;4.30;99.90
22558;DHT22;11445;53.816;8.902;2023-03-01T09:32:45;4.30;99.90
22558;DHT22;11445;53.816;8.902;2023-03-01T09:35:12;4.40;99.90
22558;DHT22;11445;53.816;8.902;2023-03-01T09:37:41;4.50;99.90
22558;DHT22;11445;53.816;8.902;2023-03-01T09:40:12;4.50;99.90
22558;DHT22;11445;53.816;8.902;2023-03-01T09:42:48;4.50;99.90
22558;DHT22;11445;53.816;8.902;2023-03-01T09:45:26;4.60;99.90
22558;DHT22;11445;53.816;8.902;2023-03-01T09:47:54;4.60;99.90
22558;DHT22;11445;53.816;8.902;2023-03-01T09:50:23;4.60;99.90
22558;DHT22;11445;53.816;8.902;2023-03-01T09:52:59;4.60;99.90
22558;DHT22;11445;53.816;8.902;2023-03-01T09:55:32;4.60;99.90
22558;DHT22;11445;53.816;8.902;2023-03-01T09:58:25;4.60;99.90
22558;DHT22;11445;53.816;8.902;2023-03-01T10:00:54;4.70;99.90
22558;DHT22;11445;53.816;8.902;2023-03-01T10:03:26;4.70;99.90
22558;DHT22;11445;53.816;8.902;2023-03-01T10:05:59;4.60;99.90
22558;DHT22;11445;53.816;8.902;2023-03-01T10:08:34;4.70;99.90
22558;DHT22;11445;53.816;8.902;2023-03-01T10:11:05;4.70;99.90
22558;DHT22;11445;53.816;8.902;2023-03-01T10:13:46;4.70;99.90
22558;DHT22;11445;53.816;8.902;2023-03-01T10:16:22;4.70;99.90
22558;DHT22;11445;53.816;8.902;2023-03-01T10:18:53;4.70;99.90
22558;DHT22;11445;53.816;8.902;2023-03-01T10:21:22;4.70;99.90
22558;DHT22;11445;53.816;8.902;2023-03-01T10:23:52;4.70;99.90
22558;DHT22;11445;53.816;8.902;2023-03-01T10:26:34;4.70;99.90
22558;DHT22;11445;53.816;8.902;2023-03-01T10:29:05;4.70;99.90
22558;DHT22;11445;53.816;8.902;2023-03-01T10:31:39;4.80;99.90
22558;DHT22;11445;53.816;8.902;2023-03-01T10:34:11;4.90;99.90
22558;DHT22;11445;53.816;8.902;2023-03-01T10:36:39;5.00;99.90
22558;DHT22;11445;53.816;8.902;2023-03-01T10:39:14;5.00;99.90
22558;DHT22;11445;53.816;8.902;2023-03-01T10:41:54;5.10;99.90
22558;DHT22;11445;53.816;8.902;2023-03-01T10:44:41;5.00;99.90
22558;DHT22;11445;53.816;8.902;2023-03-01T10:47:18;5.10;99.90
22558;DHT22;11445;53.816;8.902;2023-03-01T10:49:56;5.20;99.90
22558;DHT22;11445;53.816;8.902;2023-03-01T10:52:25;5.30;99.90
22558;DHT22;11445;53.816;8.902;2023-03-01T10:54:56;5.40;99.90
22558;DHT22;11445;53.816;8.902;2023-03-01T10:57:36;5.40;99.90
22558;DHT22;11445;53.816;8.902;2023-03-01T11:00:22;5.50;99.90
22558;DHT22;11445;53.816;8.902;2023-03-01T11:03:01;5.50;99.90
22558;DHT22;11445;53.816;8.902;2023-03-01T11:05:29;5.50;99.90
22558;DHT22;11445;53.816;8.902;2023-03-01T11:08:00;5.50;99.90
22558;DHT22;11445;53.816;8.902;2023-03-01T11:10:32;5.50;99.90
22558;DHT22;11445;53.816;8.902;2023-03-01T11:13:08;5.40;99.90
22558;DHT22;11445;53.816;8.902;2023-03-01T11:15:36;5.40;99.90
22558;DHT22;11445;53.816;8.902;2023-03-01T11:18:03;5.40;99.90
22558;DHT22;11445;53.816;8.902;2023-03-01T11:20:32;5.40;99.90
22558;DHT22;11445;53.816;8.902;2023-03-01T11:23:02;5.50;99.90
22558;DHT22;11445;53.816;8.902;2023-03-01T11:25:35;5.40;99.90
22558;DHT22;11445;53.816;8.902;2023-03-01T11:28:06;5.60;99.90
22558;DHT22;11445;53.816;8.902;2023-03-01T11:30:49;5.70;99.90
22558;DHT22;11445;53.816;8.902;2023-03-01T11:33:20;5.80;99.90
22558;DHT22;11445;53.816;8.902;2023-03-01T11:35:53;5.80;99.90
22558;DHT22;11445;53.816;8.902;2023-03-01T11:38:24;5.70;99.90
22558;DHT22;11445;53.816;8.902;2023-03-01T11:40:59;5.70;99.90
22558;DHT22;11445;53.816;8.902;2023-03-01T11:43:35;5.70;99.90
22558;DHT22;11445;53.816;8.902;2023-03-01T11:46:35;5.60;99.90
22558;DHT22;11445;53.816;8.902;2023-03-01T11:49:19;5.60;99.90
22558;DHT22;11445;53.816;8.902;2023-03-01T11:51:53;5.60;99.90
22558;DHT22;11445;53.816;8.902;2023-03-01T11:54:33;5.60;99.90
22558;DHT22;11445;53.816;8.902;2023-03-01T11:57:13;5.60;99.90
22558;DHT22;11445;53.816;8.902;2023-03-01T12:05:54;5.70;99.90
22558;DHT22;11445;53.816;8.902;2023-03-01T12:08:33;5.70;99.90
22558;DHT22;11445;53.816;8.902;2023-03-01T12:11:10;5.80;99.90
22558;DHT22;11445;53.816;8.902;2023-03-01T12:13:53;5.80;99.90
22558;DHT22;11445;53.816;8.902;2023-03-01T12:16:34;5.70;99.90
22558;DHT22;11445;53.816;8.902;2023-03-01T12:22:06;5.60;99.90
22558;DHT22;11445;53.816;8.902;2023-03-01T12:24:56;5.60;99.90
22558;DHT22;11445;53.816;8.902;2023-03-01T12:27:41;5.80;99.90
22558;DHT22;11445;53.816;8.902;2023-03-01T12:30:25;6.10;99.90
22558;DHT22;11445;53.816;8.902;2023-03-01T12:33:08;6.00;99.90
22558;DHT22;11445;53.816;8.902;2023-03-01T12:35:58;5.90;99.90
22558;DHT22;11445;53.816;8.902;2023-03-01T12:38:33;5.90;99.90
22558;DHT22;11445;53.816;8.902;2023-03-01T12:41:29;5.80;99.90
22558;DHT22;11445;53.816;8.902;2023-03-01T12:44:07;5.80;99.90
22558;DHT22;11445;53.816;8.902;2023-03-01T12:46:51;5.70;99.90
22558;DHT22;11445;53.816;8.902;2023-03-01T12:49:23;5.70;99.90
22558;DHT22;11445;53.816;8.902;2023-03-01T12:51:57;5.60;99.90
22558;DHT22;11445;53.816;8.902;2023-03-01T12:54:28;5.50;99.90
22558;DHT22;11445;53.816;8.902;2023-03-01T12:56:57;5.50;99.90
22558;DHT22;11445;53.816;8.902;2023-03-01T12:59:31;5.40;99.90
22558;DHT22;11445;53.816;8.902;2023-03-01T13:02:10;5.50;99.90
22558;DHT22;11445;53.816;8.902;2023-03-01T13:04:50;5.50;99.90
22558;DHT22;11445;53.816;8.902;2023-03-01T13:07:28;5.40;99.90
22558;DHT22;11445;53.816;8.902;2023-03-01T13:10:06;5.40;99.90
22558;DHT22;11445;53.816;8.902;2023-03-01T13:12:46;5.50;99.90
22558;DHT22;11445;53.816;8.902;2023-03-01T13:15:35;5.40;99.90
22558;DHT22;11445;53.816;8.902;2023-03-01T13:18:29;5.40;99.90
22558;DHT22;11445;53.816;8.902;2023-03-01T13:20:59;5.40;99.90
22558;DHT22;11445;53.816;8.902;2023-03-01T13:23:29;5.40;99.90
22558;DHT22;11445;53.816;8.902;2023-03-01T13:26:08;5.30;99.90
22558;DHT22;11445;53.816;8.902;2023-03-01T13:28:53;5.30;99.90
22558;DHT22;11445;53.816;8.902;2023-03-01T13:34:53;5.30;99.90
22558;DHT22;11445;53.816;8.902;2023-03-01T13:37:32;5.20;99.90
22558;DHT22;11445;53.816;8.902;2023-03-01T13:40:04;5.30;99.90
22558;DHT22;11445;53.816;8.902;2023-03-01T13:42:41;5.20;99.90
22558;DHT22;11445;53.816;8.902;2023-03-01T13:45:34;5.20;99.90
22558;DHT22;11445;53.816;8.902;2023-03-01T13:48:05;5.20;99.90
22558;DHT22;11445;53.816;8.902;2023-03-01T13:50:45;5.20;99.90
22558;DHT22;11445;53.816;8.902;2023-03-01T13:53:17;5.20;99.90
22558;DHT22;11445;53.816;8.902;2023-03-01T13:55:46;5.20;99.90
22558;DHT22;11445;53.816;8.902;2023-03-01T13:58:22;5.20;99.90
22558;DHT22;11445;53.816;8.902;2023-03-01T14:00:56;5.10;99.90
22558;DHT22;11445;53.816;8.902;2023-03-01T14:03:25;5.00;99.90
22558;DHT22;11445;53.816;8.902;2023-03-01T14:06:02;5.00;99.90
22558;DHT22;11445;53.816;8.902;2023-03-01T14:08:33;5.00;99.90
22558;DHT22;11445;53.816;8.902;2023-03-01T14:14:31;4.80;99.90
22558;DHT22;11445;53.816;8.902;2023-03-01T14:17:07;4.70;99.90
22558;DHT22;11445;53.816;8.902;2023-03-01T14:19:37;4.70;99.90
22558;DHT22;11445;53.816;8.902;2023-03-01T14:22:14;4.60;99.90
22558;DHT22;11445;53.816;8.902;2023-03-01T14:24:47;4.60;99.90
22558;DHT22;11445;53.816;8.902;2023-03-01T14:27:15;4.60;99.90
22558;DHT22;11445;53.816;8.902;2023-03-01T14:29:43;4.70;99.90
22558;DHT22;11445;53.816;8.902;2023-03-01T14:32:12;4.70;99.90
22558;DHT22;11445;53.816;8.902;2023-03-01T14:34:43;4.70;99.90
22558;DHT22;11445;53.816;8.902;2023-03-01T14:37:19;4.80;99.90
22558;DHT22;11445;53.816;8.902;2023-03-01T14:39:46;4.70;99.90
22558;DHT22;11445;53.816;8.902;2023-03-01T14:42:14;4.70;99.90
22558;DHT22;11445;53.816;8.902;2023-03-01T14:44:42;4.70;99.90
22558;DHT22;11445;53.816;8.902;2023-03-01T14:47:12;4.70;99.90
22558;DHT22;11445;53.816;8.902;2023-03-01T14:49:42;4.70;99.90
22558;DHT22;11445;53.816;8.902;2023-03-01T14:52:20;4.70;99.90
22558;DHT22;11445;53.816;8.902;2023-03-01T14:54:48;4.70;99.90
22558;DHT22;11445;53.816;8.902;2023-03-01T14:57:20;4.70;99.90
22558;DHT22;11445;53.816;8.902;2023-03-01T14:59:48;4.70;99.90
22558;DHT22;11445;53.816;8.902;2023-03-01T15:02:20;4.70;99.90
22558;DHT22;11445;53.816;8.902;2023-03-01T15:04:51;4.70;99.90
22558;DHT22;11445;53.816;8.902;2023-03-01T15:07:19;4.70;99.90
22558;DHT22;11445;53.816;8.902;2023-03-01T15:09:47;4.70;99.90
22558;DHT22;11445;53.816;8.902;2023-03-01T15:12:39;4.70;99.90
22558;DHT22;11445;53.816;8.902;2023-03-01T15:18:05;4.50;99.90
22558;DHT22;11445;53.816;8.902;2023-03-01T15:20:34;4.50;99.90
22558;DHT22;11445;53.816;8.902;2023-03-01T15:23:05;4.50;99.90
22558;DHT22;11445;53.816;8.902;2023-03-01T15:25:33;4.50;99.90
22558;DHT22;11445;53.816;8.902;2023-03-01T15:28:02;4.50;99.90
22558;DHT22;11445;53.816;8.902;2023-03-01T15:30:32;4.50;99.90
22558;DHT22;11445;53.816;8.902;2023-03-01T15:33:19;4.50;99.90
22558;DHT22;11445;53.816;8.902;2023-03-01T15:35:47;4.40;99.90
22558;DHT22;11445;53.816;8.902;2023-03-01T15:38:26;4.50;99.90
22558;DHT22;11445;53.816;8.902;2023-03-01T15:40:54;4.40;99.90
22558;DHT22;11445;53.816;8.902;2023-03-01T15:43:47;4.40;99.90
22558;DHT22;11445;53.816;8.902;2023-03-01T15:46:21;4.40;99.90
22558;DHT22;11445;53.816;8.902;2023-03-01T15:48:52;4.40;99.90
22558;DHT22;11445;53.816;8.902;2023-03-01T15:51:27;4.30;99.90
22558;DHT22;11445;53.816;8.902;2023-03-01T15:53:59;4.30;99.90
22558;DHT22;11445;53.816;8.902;2023-03-01T15:56:27;4.20;99.90
22558;DHT22;11445;53.816;8.902;2023-03-01T15:58:58;4.20;99.90
22558;DHT22;11445;53.816;8.902;2023-03-01T16:01:25;4.20;99.90
22558;DHT22;11445;53.816;8.902;2023-03-01T16:03:53;4.10;99.90
22558;DHT22;11445;53.816;8.902;2023-03-01T16:06:20;4.00;99.90
22558;DHT22;11445;53.816;8.902;2023-03-01T16:08:47;4.00;99.90
22558;DHT22;11445;53.816;8.902;2023-03-01T16:11:18;4.00;99.90
22558;DHT22;11445;53.816;8.902;2023-03-01T16:13:45;4.00;99.90
22558;DHT22;11445;53.816;8.902;2023-03-01T16:16:13;4.00;99.90
22558;DHT22;11445;53.816;8.902;2023-03-01T16:18:43;4.00;99.90
22558;DHT22;11445;53.816;8.902;2023-03-01T16:21:21;4.00;99.90
22558;DHT22;11445;53.816;8.902;2023-03-01T16:23:49;4.00;99.90
22558;DHT22;11445;53.816;8.902;2023-03-01T16:26:18;4.00;99.90